Ragersville, Ohio
Current Conditions -  °F | °C
As of 7:53 PM on Friday 19 Dec 2014 (Local Time) from KPHD Reporting Station
Overcast Overcast  
Wind Chill: 26°   Ceiling: 2500
Heat Index: 31°   Visibility: 10mi
Dew Point: 22°   Wind: 5mph
Humidity: 69%   Direction: 280°W
Pressure: 30.31"   Gusts: NA
Location:  40.5178°N, 81.673°W
Report Text: KPHD 200053Z AUTO 28004KT 10SM OVC025 M01/M06 A3031 RMK AO2 SLP273 T10061056
Loading
Personal Weather Stations






























Interactive Weather Map New forecast layout! Learn more

10-Day Weather Forecast

Advertisements
Track Severe Weather on mobile